Time;durP1;ratioP1;P1;durP2;ratioP2;P2;SDS_P1;SDS_P2;PMS_P1;PMS_P2;Temp;Humidity;BMP_temperature;BMP_pressure;BME280_temperature;BME280_humidity;BME280_pressure;Samples;Min_cycle;Max_cycle;Signal;HPM_P1;HPM_P2
2022/03/04 00:02:10;;;;;;;30.38;14.90;;;1.90;99.90;;;;;;5074492;28;20087;-65
2022/03/04 00:04:37;;;;;;;25.58;13.52;;;1.80;99.90;;;;;;5074721;28;20047;-65
2022/03/04 00:07:06;;;;;;;31.00;15.60;;;1.80;99.90;;;;;;5057818;28;20074;-65
2022/03/04 00:09:33;;;;;;;29.05;15.13;;;1.80;99.90;;;;;;5074678;28;20042;-65
2022/03/04 00:12:00;;;;;;;33.28;14.60;;;1.70;99.90;;;;;;5058086;28;20436;-65
2022/03/04 00:14:25;;;;;;;30.83;15.13;;;1.70;99.90;;;;;;5076767;28;20046;-65
2022/03/04 00:16:53;;;;;;;33.00;15.80;;;1.60;99.90;;;;;;5078609;28;20429;-65
2022/03/04 00:19:19;;;;;;;25.27;13.25;;;1.60;99.90;;;;;;5061501;28;20083;-66
2022/03/04 00:21:48;;;;;;;26.55;14.18;;;1.60;99.90;;;;;;5078336;28;20040;-65
2022/03/04 00:24:17;;;;;;;31.20;15.85;;;1.50;99.90;;;;;;5061532;28;20447;-65
2022/03/04 00:26:44;;;;;;;27.58;13.35;;;1.50;99.90;;;;;;5059621;28;20039;-65
2022/03/04 00:29:11;;;;;;;29.70;15.43;;;1.40;99.90;;;;;;5078366;28;20376;-65
2022/03/04 00:31:37;;;;;;;26.75;15.25;;;1.40;99.90;;;;;;5061410;28;20040;-65
2022/03/04 00:34:06;;;;;;;31.08;15.77;;;1.40;99.90;;;;;;5077981;28;20194;-65
2022/03/04 00:36:36;;;;;;;27.45;13.00;;;1.30;99.90;;;;;;5077934;28;20044;-65
2022/03/04 00:39:05;;;;;;;27.95;15.18;;;1.20;99.90;;;;;;5078271;28;20388;-65
2022/03/04 00:41:31;;;;;;;27.98;13.82;;;1.20;99.90;;;;;;5077834;28;20491;-65
2022/03/04 00:43:57;;;;;;;28.33;14.20;;;1.20;99.90;;;;;;5061325;28;20042;-65
2022/03/04 00:46:23;;;;;;;29.33;14.80;;;1.10;99.90;;;;;;5077795;28;20040;-65
2022/03/04 00:48:49;;;;;;;24.60;12.27;;;1.10;99.90;;;;;;5078144;28;20471;-65
2022/03/04 00:51:15;;;;;;;25.48;11.23;;;1.10;99.90;;;;;;5078007;28;20075;-65
2022/03/04 00:53:42;;;;;;;28.33;12.23;;;1.10;99.90;;;;;;5061339;28;20127;-65
2022/03/04 00:56:10;;;;;;;28.42;14.18;;;1.10;99.90;;;;;;5075786;28;20056;-65
2022/03/04 00:58:37;;;;;;;26.13;13.55;;;1.10;99.90;;;;;;5060984;28;20040;-65
2022/03/04 01:01:05;;;;;;;26.52;13.43;;;1.00;99.90;;;;;;5077361;28;20039;-65
2022/03/04 01:03:32;;;;;;;29.50;13.68;;;1.00;99.90;;;;;;5077700;28;20451;-65
2022/03/04 01:06:02;;;;;;;30.88;14.55;;;0.90;99.90;;;;;;5077746;28;20403;-65
2022/03/04 01:08:28;;;;;;;;;;;0.90;99.90;;;;;;5061600;28;20122;-66
2022/03/04 01:10:55;;;;;;;28.00;15.13;;;0.80;99.90;;;;;;5077349;28;19922;-65
2022/03/04 01:13:21;;;;;;;26.10;13.43;;;0.80;99.90;;;;;;5077404;28;20122;-65
2022/03/04 01:15:48;;;;;;;26.55;13.95;;;0.60;99.90;;;;;;5077174;28;20044;-65
2022/03/04 01:18:14;;;;;;;25.05;12.43;;;0.60;99.90;;;;;;5060831;28;20385;-65
2022/03/04 01:20:40;;;;;;;24.50;12.52;;;0.50;99.90;;;;;;5077077;28;20044;-65
2022/03/04 01:23:06;;;;;;;29.48;13.77;;;0.50;99.90;;;;;;5060473;28;20051;-65
2022/03/04 01:25:32;;;;;;;26.13;13.25;;;0.50;99.90;;;;;;5056932;28;20098;-65
2022/03/04 01:27:59;;;;;;;23.55;12.65;;;0.40;99.90;;;;;;5077260;28;20040;-65
2022/03/04 01:30:25;;;;;;;27.42;13.35;;;0.40;99.90;;;;;;5077176;28;20040;-65
2022/03/04 01:32:51;;;;;;;29.17;12.93;;;0.40;99.90;;;;;;5076944;28;20536;-65
2022/03/04 01:35:17;;;;;;;25.00;11.70;;;0.40;99.90;;;;;;5060272;28;20040;-65
2022/03/04 01:37:43;;;;;;;24.35;13.90;;;0.50;99.90;;;;;;5060489;28;20450;-65
2022/03/04 01:40:10;;;;;;;23.60;12.85;;;0.50;99.90;;;;;;5076801;28;20048;-65
2022/03/04 01:42:36;;;;;;;27.25;12.90;;;0.50;99.90;;;;;;5060092;28;20040;-65
2022/03/04 01:45:05;;;;;;;25.20;12.68;;;0.40;99.90;;;;;;5076764;28;20044;-65
2022/03/04 01:47:31;;;;;;;25.65;12.63;;;0.40;99.90;;;;;;5076646;28;20484;-66
2022/03/04 01:49:57;;;;;;;24.45;10.95;;;0.40;99.90;;;;;;5076681;28;20040;-66
2022/03/04 01:52:22;;;;;;;20.40;11.18;;;0.40;99.90;;;;;;5076496;28;20040;-66
2022/03/04 01:54:48;;;;;;;25.85;12.57;;;0.40;99.90;;;;;;5074484;28;20044;-66
2022/03/04 01:57:14;;;;;;;23.58;12.43;;;0.30;99.90;;;;;;5060041;28;20032;-66
2022/03/04 01:59:40;;;;;;;24.35;11.90;;;0.30;99.90;;;;;;5076615;28;20119;-66
2022/03/04 02:02:06;;;;;;;24.17;12.52;;;0.30;99.90;;;;;;5076293;28;20097;-66
2022/03/04 02:04:32;;;;;;;23.17;11.70;;;0.30;99.90;;;;;;5059946;28;20032;-65
2022/03/04 02:06:58;;;;;;;21.60;10.75;;;0.30;99.90;;;;;;5076240;28;20056;-66
2022/03/04 02:09:24;;;;;;;23.50;11.23;;;0.30;99.90;;;;;;5059629;28;20039;-66
2022/03/04 02:11:50;;;;;;;19.13;10.55;;;0.30;99.90;;;;;;5059468;28;20127;-66
2022/03/04 02:14:16;;;;;;;19.58;11.10;;;0.30;99.90;;;;;;5076414;28;20051;-66
2022/03/04 02:16:51;;;;;;;20.90;11.48;;;0.30;99.90;;;;;;5059771;28;20044;-66
2022/03/04 02:19:18;;;;;;;21.92;10.75;;;0.30;99.90;;;;;;5075987;28;20083;-66
2022/03/04 02:21:54;;;;;;;20.85;10.75;;;0.20;99.90;;;;;;5075973;28;20044;-66
2022/03/04 02:24:22;;;;;;;21.88;10.05;;;0.20;99.90;;;;;;5075964;28;20074;-66
2022/03/04 02:26:49;;;;;;;21.00;11.50;;;0.20;99.90;;;;;;5073826;28;20048;-66
2022/03/04 02:29:16;;;;;;;23.38;10.10;;;0.20;99.90;;;;;;5059571;28;20434;-66
2022/03/04 02:31:42;;;;;;;20.08;10.68;;;0.10;99.90;;;;;;5076014;28;20047;-66
2022/03/04 02:34:08;;;;;;;17.60;9.95;;;0.10;99.90;;;;;;5076046;28;20040;-66
2022/03/04 02:36:34;;;;;;;18.73;10.05;;;0.10;99.90;;;;;;5075792;28;20051;-66
2022/03/04 02:39:00;;;;;;;18.75;9.05;;;0.00;99.90;;;;;;5075753;28;20499;-66
2022/03/04 02:41:26;;;;;;;19.92;10.38;;;0.00;99.90;;;;;;5075576;28;20044;-66
2022/03/04 02:43:52;;;;;;;19.40;9.40;;;0.00;99.90;;;;;;5075629;28;20036;-66
2022/03/04 02:46:18;;;;;;;14.40;8.00;;;0.00;99.90;;;;;;5058864;28;20051;-66
2022/03/04 02:48:44;;;;;;;21.60;10.70;;;-0.10;99.90;;;;;;5075579;28;20040;-66
2022/03/04 02:51:10;;;;;;;21.65;10.75;;;-0.10;99.90;;;;;;5075483;28;20051;-66
2022/03/04 02:53:36;;;;;;;18.13;9.75;;;-0.10;99.90;;;;;;5075337;28;20048;-66
2022/03/04 02:56:02;;;;;;;16.98;9.35;;;-0.20;99.90;;;;;;5073416;28;20040;-66
2022/03/04 02:58:27;;;;;;;17.83;9.77;;;-0.10;99.90;;;;;;5075488;28;20066;-66
2022/03/04 03:00:53;;;;;;;19.92;9.82;;;-0.20;99.90;;;;;;5075272;28;20123;-67
2022/03/04 03:03:19;;;;;;;16.60;8.50;;;-0.20;99.90;;;;;;5075421;28;20043;-66
2022/03/04 03:05:45;;;;;;;21.40;10.23;;;-0.20;99.90;;;;;;5058536;28;20039;-66
2022/03/04 03:08:11;;;;;;;22.50;10.27;;;-0.20;99.90;;;;;;5058621;28;20032;-66
2022/03/04 03:10:37;;;;;;;21.42;10.35;;;-0.20;99.90;;;;;;5075236;28;20040;-66
2022/03/04 03:13:04;;;;;;;27.48;12.32;;;-0.20;99.90;;;;;;5075038;28;20508;-67
2022/03/04 03:15:29;;;;;;;20.98;10.93;;;-0.30;99.90;;;;;;5075414;28;20040;-66
2022/03/04 03:17:55;;;;;;;19.27;10.00;;;-0.30;99.90;;;;;;5075240;28;20534;-67
2022/03/04 03:20:21;;;;;;;22.45;11.40;;;-0.30;99.90;;;;;;5075013;28;20066;-66
2022/03/04 03:22:47;;;;;;;23.40;10.75;;;-0.30;99.90;;;;;;5058216;28;20044;-66
2022/03/04 03:25:13;;;;;;;23.48;10.90;;;-0.30;99.90;;;;;;5056015;28;20087;-66
2022/03/04 03:27:39;;;;;;;20.08;11.05;;;-0.40;99.90;;;;;;5058130;28;20488;-67
2022/03/04 03:30:07;;;;;;;22.80;12.02;;;-0.40;99.90;;;;;;5075013;28;20366;-67
2022/03/04 03:32:33;;;;;;;26.15;12.65;;;-0.40;99.90;;;;;;5074784;28;20489;-66
2022/03/04 03:34:59;;;;;;;25.02;12.93;;;-0.40;99.90;;;;;;5074847;28;20039;-66
2022/03/04 03:37:25;;;;;;;24.90;13.27;;;-0.50;99.90;;;;;;5074735;28;20480;-67
2022/03/04 03:39:51;;;;;;;25.13;12.85;;;-0.50;99.90;;;;;;5057960;28;20044;-67
2022/03/04 03:42:17;;;;;;;20.42;11.32;;;-0.50;99.90;;;;;;5058017;28;20048;-67
2022/03/04 03:44:43;;;;;;;22.27;11.63;;;-0.50;99.90;;;;;;5074775;28;20036;-67
2022/03/04 03:47:12;;;;;;;23.73;11.20;;;-0.50;99.90;;;;;;5057948;28;20040;-66
2022/03/04 03:49:38;;;;;;;22.77;10.82;;;-0.60;99.90;;;;;;5062920;28;20548;-67
2022/03/04 03:52:05;;;;;;;28.55;11.75;;;-0.60;99.90;;;;;;5081207;28;20515;-67
2022/03/04 03:54:31;;;;;;;22.35;11.30;;;-0.60;99.90;;;;;;5063985;28;20560;-66
2022/03/04 03:56:56;;;;;;;24.55;11.38;;;-0.60;99.90;;;;;;5063491;28;20083;-67
2022/03/04 03:59:22;;;;;;;26.15;11.95;;;-0.70;99.90;;;;;;5064722;28;20377;-67
2022/03/04 04:01:49;;;;;;;24.52;11.70;;;-0.70;99.90;;;;;;5064698;28;20075;-67
2022/03/04 04:04:15;;;;;;;22.83;11.05;;;-0.70;99.90;;;;;;5081251;28;20032;-67
2022/03/04 04:06:42;;;;;;;21.58;11.40;;;-0.70;99.90;;;;;;5081148;28;20123;-67
2022/03/04 04:09:08;;;;;;;25.65;12.05;;;-0.70;99.90;;;;;;5081136;28;20040;-67
2022/03/04 04:11:36;;;;;;;24.95;11.02;;;-0.80;99.90;;;;;;5081513;28;20040;-67
2022/03/04 04:14:06;;;;;;;24.30;12.73;;;-0.80;99.90;;;;;;5081403;28;20032;-67
2022/03/04 04:16:32;;;;;;;26.77;12.63;;;-0.80;99.90;;;;;;5081168;28;20040;-68
2022/03/04 04:18:58;;;;;;;27.10;11.93;;;-0.80;99.90;;;;;;5064467;28;20044;-67
2022/03/04 04:21:27;;;;;;;28.10;13.43;;;-0.90;99.90;;;;;;5081149;28;20048;-67
2022/03/04 04:23:54;;;;;;;17.98;8.57;;;-0.90;99.90;;;;;;5080735;28;20110;-67
2022/03/04 04:26:20;;;;;;;23.92;12.73;;;-0.80;99.90;;;;;;5078950;28;20044;-67
2022/03/04 04:28:46;;;;;;;22.67;11.43;;;-0.80;99.90;;;;;;5080945;28;20039;-67
2022/03/04 04:31:14;;;;;;;25.20;11.93;;;-0.80;99.90;;;;;;5081171;28;20163;-67
2022/03/04 04:33:40;;;;;;;22.00;11.57;;;-0.80;99.90;;;;;;5064249;28;20044;-67
2022/03/04 04:36:06;;;;;;;27.08;13.95;;;-0.90;99.90;;;;;;5099121;28;20036;-67
2022/03/04 04:38:32;;;;;;;27.38;13.10;;;-0.90;99.90;;;;;;5080967;28;20077;-67
2022/03/04 04:40:58;;;;;;;26.67;12.02;;;-0.90;99.90;;;;;;5080885;28;20108;-67
2022/03/04 04:43:24;;;;;;;29.48;13.07;;;-0.90;99.90;;;;;;5064118;28;20044;-67
2022/03/04 04:45:51;;;;;;;24.70;12.63;;;-1.00;99.90;;;;;;5064528;28;20039;-67
2022/03/04 04:48:17;;;;;;;25.23;13.15;;;-1.00;99.90;;;;;;5080759;28;20499;-67
2022/03/04 04:50:43;;;;;;;27.95;13.77;;;-1.00;99.90;;;;;;5081111;28;20370;-67
2022/03/04 04:53:09;;;;;;;25.20;13.77;;;-1.00;99.90;;;;;;5080864;28;20079;-67
2022/03/04 04:55:35;;;;;;;26.85;13.70;;;-1.00;99.90;;;;;;5061927;28;20055;-67
2022/03/04 04:58:01;;;;;;;30.77;13.57;;;-1.00;99.90;;;;;;5064075;28;20039;-67
2022/03/04 05:00:27;;;;;;;29.27;13.15;;;-1.00;99.90;;;;;;5078952;28;20040;-67
2022/03/04 05:02:53;;;;;;;28.33;13.10;;;-1.00;99.90;;;;;;5077621;28;20103;-67
2022/03/04 05:05:20;;;;;;;22.85;11.93;;;-1.00;99.90;;;;;;5060732;28;20055;-67
2022/03/04 05:07:46;;;;;;;29.33;13.32;;;-1.00;99.90;;;;;;5077407;28;20473;-67
2022/03/04 05:10:12;;;;;;;26.50;14.35;;;-1.10;99.90;;;;;;5061032;28;20369;-67
2022/03/04 05:12:39;;;;;;;27.73;14.38;;;-1.10;99.90;;;;;;5077413;28;20036;-67
2022/03/04 05:15:06;;;;;;;26.88;14.50;;;-1.10;99.90;;;;;;5060588;28;20079;-67
2022/03/04 05:17:32;;;;;;;32.38;15.65;;;-1.10;99.90;;;;;;5058080;28;20051;-67
2022/03/04 05:19:57;;;;;;;28.55;14.77;;;-1.10;99.90;;;;;;5077508;28;20472;-67
2022/03/04 05:22:25;;;;;;;29.42;14.27;;;-1.20;99.90;;;;;;5060433;28;20105;-67
2022/03/04 05:24:50;;;;;;;32.72;16.00;;;-1.30;99.90;;;;;;5074577;28;20055;-67
2022/03/04 05:27:16;;;;;;;27.83;15.75;;;-1.40;99.90;;;;;;5060256;28;20085;-68
2022/03/04 05:29:42;;;;;;;31.17;16.08;;;-1.40;99.90;;;;;;5076844;28;20047;-68
2022/03/04 05:32:08;;;;;;;33.05;15.25;;;-1.40;99.90;;;;;;5077363;28;20055;-67
2022/03/04 05:34:36;;;;;;;31.75;15.07;;;-1.40;99.90;;;;;;5060362;28;20642;-67
2022/03/04 05:37:03;;;;;;;28.65;15.35;;;-1.50;99.90;;;;;;5076942;28;20051;-67
2022/03/04 05:39:28;;;;;;;35.10;16.45;;;-1.50;99.90;;;;;;5076710;28;20500;-67
2022/03/04 05:41:54;;;;;;;29.08;14.98;;;-1.50;99.90;;;;;;5076765;28;20101;-67
2022/03/04 05:44:20;;;;;;;31.42;16.10;;;-1.50;99.90;;;;;;5077045;28;20040;-68
2022/03/04 05:46:46;;;;;;;36.20;15.88;;;-1.50;99.90;;;;;;5077092;28;20127;-67
2022/03/04 05:49:12;;;;;;;32.58;15.90;;;-1.50;99.90;;;;;;5077042;28;20047;-67
2022/03/04 05:51:37;;;;;;;30.85;15.98;;;-1.50;99.90;;;;;;5076857;28;20380;-67
2022/03/04 05:54:03;;;;;;;35.40;17.77;;;-1.60;99.90;;;;;;5059926;28;20044;-68
2022/03/04 05:56:29;;;;;;;27.95;14.15;;;-1.60;99.90;;;;;;5057697;28;20046;-68
2022/03/04 05:58:55;;;;;;;26.77;15.55;;;-1.50;99.90;;;;;;5076433;28;20044;-67
2022/03/04 06:01:21;;;;;;;30.50;15.55;;;-1.50;99.90;;;;;;5059810;28;20051;-67
2022/03/04 06:03:46;;;;;;;29.60;15.13;;;-1.50;99.90;;;;;;5076195;28;20544;-67
2022/03/04 06:06:13;;;;;;;31.73;14.80;;;-1.50;99.90;;;;;;5076786;28;20036;-68
2022/03/04 06:08:39;;;;;;;35.05;16.85;;;-1.50;99.90;;;;;;5076378;28;20047;-68
2022/03/04 06:11:09;;;;;;;41.63;16.63;;;-1.50;99.90;;;;;;5075950;28;20044;-67
2022/03/04 06:13:36;;;;;;;30.33;16.10;;;-1.50;99.90;;;;;;5076246;28;20047;-68
2022/03/04 06:16:03;;;;;;;34.22;16.58;;;-1.50;99.90;;;;;;5076447;28;20119;-68
2022/03/04 06:18:28;;;;;;;36.38;16.05;;;-1.60;99.90;;;;;;5076102;28;20048;-68
2022/03/04 06:20:54;;;;;;;24.35;12.85;;;-1.50;99.90;;;;;;5059307;28;20040;-67
2022/03/04 06:23:21;;;;;;;30.63;16.80;;;-1.50;99.90;;;;;;5059218;28;20076;-68
2022/03/04 06:25:47;;;;;;;33.17;15.52;;;-1.60;99.90;;;;;;5057243;28;20491;-68
2022/03/04 06:28:13;;;;;;;36.30;16.00;;;-1.60;99.90;;;;;;5076072;28;20043;-68
2022/03/04 06:30:40;;;;;;;38.25;16.90;;;-1.50;99.90;;;;;;5075687;28;20469;-68
2022/03/04 06:35:51;;;;;;;31.05;16.30;;;-1.50;99.90;;;;;;5075691;28;20043;-68
2022/03/04 06:38:20;;;;;;;29.70;11.05;;;-1.50;99.90;;;;;;5076041;28;20040;-67
2022/03/04 06:40:47;;;;;;;33.92;18.02;;;-1.40;99.90;;;;;;5075619;28;20044;-68
2022/03/04 06:43:13;;;;;;;38.33;18.10;;;-1.40;99.90;;;;;;5075575;28;20067;-68
2022/03/04 06:45:47;;;;;;;40.33;18.77;;;-1.40;99.90;;;;;;5075768;28;20128;-68
2022/03/04 06:48:15;;;;;;;39.55;19.23;;;-1.40;99.90;;;;;;5058899;28;20088;-68
2022/03/04 06:50:41;;;;;;;43.25;19.02;;;-1.30;99.90;;;;;;5075465;28;20105;-68
2022/03/04 06:53:07;;;;;;;43.40;19.08;;;-1.30;99.90;;;;;;5075757;28;20517;-67
2022/03/04 06:55:33;;;;;;;37.22;18.73;;;-1.30;99.90;;;;;;5073158;28;20122;-67
2022/03/04 06:57:59;;;;;;;49.88;23.00;;;-1.20;99.90;;;;;;5059035;28;20066;-68
2022/03/04 07:00:26;;;;;;;37.00;18.48;;;-1.20;99.90;;;;;;5075184;28;20106;-68
2022/03/04 07:02:53;;;;;;;43.38;20.30;;;-1.20;99.90;;;;;;5058469;28;20492;-68
2022/03/04 07:05:21;;;;;;;42.13;20.48;;;-1.10;99.90;;;;;;5058514;28;20040;-68
2022/03/04 07:07:49;;;;;;;42.15;20.25;;;-1.10;99.90;;;;;;5075102;28;20069;-68
2022/03/04 07:10:15;;;;;;;43.03;20.90;;;-1.00;99.90;;;;;;5074155;28;20333;-68
2022/03/04 07:12:41;;;;;;;42.05;20.13;;;-1.00;99.90;;;;;;5074104;28;20484;-67
2022/03/04 07:15:07;;;;;;;47.90;22.48;;;-0.90;99.90;;;;;;5057714;28;20047;-67
2022/03/04 07:17:33;;;;;;;49.85;23.05;;;-0.90;99.90;;;;;;5055758;28;20127;-67
2022/03/04 07:19:59;;;;;;;46.53;21.63;;;-0.90;99.90;;;;;;5074975;28;20127;-68
2022/03/04 07:22:25;;;;;;;38.03;19.33;;;-0.80;99.90;;;;;;5074561;28;20040;-67
2022/03/04 07:24:51;;;;;;;38.50;17.90;;;-0.80;99.90;;;;;;5070609;28;20044;-67
2022/03/04 07:27:17;;;;;;;42.35;19.02;;;-0.70;99.90;;;;;;5074195;28;20036;-67
2022/03/04 07:29:43;;;;;;;38.50;19.60;;;-0.70;99.90;;;;;;5057282;28;20608;-67
2022/03/04 07:32:08;;;;;;;41.05;20.02;;;-0.60;99.90;;;;;;5074235;28;20098;-68
2022/03/04 07:34:34;;;;;;;41.85;19.80;;;-0.70;99.90;;;;;;5057252;28;20482;-67
2022/03/04 07:37:00;;;;;;;40.25;19.13;;;-0.70;99.90;;;;;;5073996;28;20044;-68
2022/03/04 07:39:26;;;;;;;32.47;15.50;;;-0.70;99.90;;;;;;5073868;28;20040;-68
2022/03/04 07:41:52;;;;;;;34.72;15.23;;;-0.70;99.90;;;;;;5073774;28;20134;-67
2022/03/04 07:44:18;;;;;;;19.00;9.38;;;-0.60;99.90;;;;;;5073920;28;20415;-67
2022/03/04 07:46:44;;;;;;;38.70;19.23;;;-0.60;99.90;;;;;;5073783;28;20072;-67
2022/03/04 07:49:10;;;;;;;46.30;21.00;;;-0.60;99.90;;;;;;5073834;28;20071;-67
2022/03/04 07:51:36;;;;;;;49.33;21.90;;;-0.60;99.90;;;;;;5073825;28;20043;-68
2022/03/04 07:54:02;;;;;;;44.97;21.80;;;-0.60;99.90;;;;;;5073836;28;20040;-68
2022/03/04 07:56:28;;;;;;;49.33;22.60;;;-0.50;99.90;;;;;;5071469;28;20043;-68
2022/03/04 07:58:54;;;;;;;52.00;23.70;;;-0.40;99.90;;;;;;5057058;28;20036;-68
2022/03/04 08:01:19;;;;;;;47.08;21.17;;;-0.30;99.90;;;;;;5073508;28;20044;-68
2022/03/04 08:03:46;;;;;;;45.25;20.65;;;-0.30;99.90;;;;;;5057159;28;20040;-68
2022/03/04 08:06:12;;;;;;;40.05;22.77;;;-0.20;99.90;;;;;;5073843;28;20454;-67
2022/03/04 08:08:39;;;;;;;45.72;20.63;;;-0.20;99.90;;;;;;5057403;28;20526;-68
2022/03/04 08:11:05;;;;;;;42.88;21.08;;;-0.10;99.90;;;;;;5073760;28;20401;-68
2022/03/04 08:13:31;;;;;;;39.35;19.10;;;-0.10;99.90;;;;;;5073735;28;20389;-68
2022/03/04 08:15:58;;;;;;;39.22;18.85;;;-0.10;99.90;;;;;;5056956;28;20097;-67
2022/03/04 08:18:23;;;;;;;41.90;21.95;;;-0.10;99.90;;;;;;5073610;28;20051;-67
2022/03/04 08:20:49;;;;;;;46.80;22.10;;;-0.10;99.90;;;;;;5073789;28;20036;-68
2022/03/04 08:23:15;;;;;;;43.92;22.13;;;-0.10;99.90;;;;;;5053322;28;20633;-68
2022/03/04 08:25:41;;;;;;;42.88;22.80;;;0.10;99.90;;;;;;5059291;28;20056;-68
2022/03/04 08:28:07;;;;;;;41.88;21.25;;;0.20;99.90;;;;;;5065521;28;20092;-68
2022/03/04 08:30:34;;;;;;;34.60;19.70;;;0.20;99.90;;;;;;5055201;28;20090;-68
2022/03/04 08:33:00;;;;;;;29.33;15.57;;;0.20;99.90;;;;;;5053232;28;20500;-68
2022/03/04 08:35:26;;;;;;;42.13;20.27;;;0.20;99.90;;;;;;5038750;28;20087;-68
2022/03/04 08:37:52;;;;;;;39.25;19.58;;;0.30;99.90;;;;;;5056977;28;20488;-68
2022/03/04 08:40:18;;;;;;;43.72;21.48;;;0.20;99.90;;;;;;5057081;28;20040;-68
2022/03/04 08:42:44;;;;;;;41.63;20.27;;;0.40;99.90;;;;;;5075293;28;20059;-68
2022/03/04 08:45:11;;;;;;;39.95;21.10;;;0.50;99.90;;;;;;5077172;28;20123;-68
2022/03/04 08:47:38;;;;;;;34.63;16.65;;;0.60;99.90;;;;;;5077055;28;20467;-67
2022/03/04 08:50:06;;;;;;;35.30;19.30;;;0.70;99.90;;;;;;5077280;28;20036;-67
2022/03/04 08:52:32;;;;;;;38.63;21.08;;;0.70;99.90;;;;;;5076503;28;20082;-67
2022/03/04 08:54:58;;;;;;;37.40;18.90;;;0.80;99.90;;;;;;5074584;28;20395;-67
2022/03/04 08:57:24;;;;;;;38.58;20.30;;;0.80;99.90;;;;;;5076815;28;20051;-67
2022/03/04 08:59:50;;;;;;;39.42;20.92;;;0.80;99.90;;;;;;5060314;28;20117;-67
2022/03/04 09:02:16;;;;;;;38.65;20.52;;;0.90;99.90;;;;;;5076535;28;20036;-67
2022/03/04 09:04:42;;;;;;;46.58;23.35;;;0.90;99.90;;;;;;5076696;28;20048;-69
2022/03/04 09:07:08;;;;;;;41.03;21.20;;;1.00;99.90;;;;;;5076656;28;20453;-67
2022/03/04 09:09:35;;;;;;;35.42;17.88;;;1.20;99.90;;;;;;5076892;28;20500;-67
2022/03/04 09:12:01;;;;;;;34.20;18.23;;;1.40;99.90;;;;;;5076661;28;20036;-67
2022/03/04 09:14:27;;;;;;;31.52;19.05;;;1.30;99.90;;;;;;5073774;28;20048;-68
2022/03/04 09:16:53;;;;;;;32.10;18.75;;;1.30;99.90;;;;;;5076554;28;20144;-67
2022/03/04 09:19:19;;;;;;;36.85;20.73;;;1.20;99.90;;;;;;5057684;28;20123;-67
2022/03/04 09:21:47;;;;;;;35.90;18.30;;;1.10;99.90;;;;;;5039576;28;20040;-67
2022/03/04 09:24:14;;;;;;;34.53;18.65;;;1.30;99.90;;;;;;5065123;28;20083;-67
2022/03/04 09:26:40;;;;;;;35.85;20.90;;;1.50;99.90;;;;;;5073823;28;20036;-66
2022/03/04 09:29:06;;;;;;;28.02;16.98;;;1.80;99.90;;;;;;5076440;28;20495;-67
2022/03/04 09:31:32;;;;;;;27.67;15.98;;;2.40;99.90;;;;;;5076233;28;20047;-67
2022/03/04 09:33:58;;;;;;;29.67;17.15;;;3.10;99.90;;;;;;5076371;28;20040;-68
2022/03/04 09:36:24;;;;;;;30.65;17.27;;;3.80;99.90;;;;;;5092588;28;20523;-66
2022/03/04 09:38:50;;;;;;;27.00;17.35;;;4.60;99.90;;;;;;5093095;28;20083;-67
2022/03/04 09:41:17;;;;;;;25.77;16.05;;;5.50;99.90;;;;;;5075793;28;20043;-66
2022/03/04 09:43:44;;;;;;;24.48;15.88;;;6.40;99.90;;;;;;5092697;28;20036;-66
2022/03/04 09:46:11;;;;;;;24.63;16.67;;;7.00;99.90;;;;;;5092101;28;20414;-67
2022/03/04 09:48:40;;;;;;;22.90;15.63;;;7.40;99.90;;;;;;5075562;28;20036;-66
2022/03/04 09:51:09;;;;;;;24.58;15.40;;;7.90;99.90;;;;;;5092808;28;20190;-67
2022/03/04 09:53:35;;;;;;;21.75;16.50;;;8.30;99.90;;;;;;5092744;28;20051;-66
2022/03/04 09:56:02;;;;;;;23.90;16.48;;;8.20;99.90;;;;;;5090199;28;20404;-66
2022/03/04 09:58:28;;;;;;;24.65;16.58;;;7.30;99.90;;;;;;5092318;28;20495;-66
2022/03/04 10:00:54;;;;;;;24.10;16.83;;;6.60;99.90;;;;;;5092379;28;20040;-66
2022/03/04 10:03:39;;;;;;;22.85;16.98;;;6.20;99.90;;;;;;5092246;28;20044;-66
2022/03/04 10:06:06;;;;;;;18.92;10.65;;;5.90;99.90;;;;;;5091967;28;20123;-65
2022/03/04 10:08:50;;;;;;;21.90;15.25;;;6.00;99.90;;;;;;5092272;28;20393;-65
2022/03/04 10:11:27;;;;;;;23.77;15.80;;;6.40;99.90;;;;;;5092065;28;20048;-66
2022/03/04 10:13:59;;;;;;;23.17;16.13;;;7.00;99.90;;;;;;5092403;28;20048;-66
2022/03/04 10:16:28;;;;;;;20.17;13.73;;;7.70;99.90;;;;;;5075470;28;20062;-66
2022/03/04 10:19:15;;;;;;;20.80;14.75;;;8.00;99.90;;;;;;5092142;28;20047;-66
2022/03/04 10:21:53;;;;;;;23.73;16.48;;;8.30;99.90;;;;;;5092091;28;20097;-65
2022/03/04 10:24:26;;;;;;;22.63;16.42;;;8.60;99.90;;;;;;5092706;28;20079;-66
2022/03/04 10:27:09;;;;;;;20.85;15.05;;;8.80;99.90;;;;;;5092779;28;20471;-67
2022/03/04 10:29:49;;;;;;;23.35;16.35;;;9.20;99.90;;;;;;5095273;28;20495;-67
2022/03/04 10:32:26;;;;;;;22.77;16.38;;;9.50;99.90;;;;;;5095143;28;20040;-66
2022/03/04 10:34:55;;;;;;;22.08;16.85;;;9.70;99.90;;;;;;5078201;28;20487;-66
2022/03/04 10:37:48;;;;;;;24.92;17.23;;;10.10;99.90;;;;;;5094907;28;20050;-66
2022/03/04 10:40:15;;;;;;;24.77;17.23;;;10.60;99.90;;;;;;5095859;28;20475;-65
2022/03/04 10:42:59;;;;;;;22.73;16.42;;;10.90;99.90;;;;;;5095679;28;20046;-65
2022/03/04 10:45:34;;;;;;;18.80;14.07;;;11.10;99.90;;;;;;5096148;28;20047;-66
2022/03/04 10:48:07;;;;;;;17.45;14.02;;;11.50;99.90;;;;;;5095912;28;20028;-66
2022/03/04 10:50:35;;;;;;;19.20;14.45;;;12.00;99.90;;;;;;5095841;28;20043;-66
2022/03/04 10:53:20;;;;;;;21.42;15.32;;;12.20;99.90;;;;;;5095889;28;20101;-65
2022/03/04 10:55:48;;;;;;;16.90;13.93;;;12.70;97.10;;;;;;5076442;28;20047;-65
2022/03/04 10:58:31;;;;;;;18.02;14.75;;;12.80;94.70;;;;;;5095778;28;20104;-65
2022/03/04 11:01:18;;;;;;;19.67;14.32;;;13.00;91.30;;;;;;5095749;28;20040;-65
2022/03/04 11:03:44;;;;;;;20.33;15.35;;;13.20;91.50;;;;;;5088784;28;20400;-66
2022/03/04 11:06:15;;;;;;;18.23;14.82;;;13.30;85.90;;;;;;5095664;28;20086;-66
2022/03/04 11:08:42;;;;;;;15.02;11.77;;;13.40;82.70;;;;;;5095487;28;20036;-65
2022/03/04 11:11:09;;;;;;;19.20;13.98;;;13.00;73.20;;;;;;5095728;28;20345;-66
2022/03/04 11:13:36;;;;;;;17.80;13.52;;;12.90;79.00;;;;;;5095639;28;20089;-65
2022/03/04 11:16:05;;;;;;;17.33;13.90;;;12.90;80.10;;;;;;5095252;28;20048;-65
2022/03/04 11:18:32;;;;;;;17.52;15.20;;;13.10;79.20;;;;;;5095291;28;20406;-65
2022/03/04 11:20:59;;;;;;;15.15;10.73;;;13.40;79.90;;;;;;5095445;28;20066;-65
2022/03/04 11:23:30;;;;;;;17.98;11.77;;;13.10;68.70;;;;;;5095044;28;20060;-66
2022/03/04 11:26:05;;;;;;;17.25;13.98;;;12.50;69.00;;;;;;5076256;28;20460;-66
2022/03/04 11:28:41;;;;;;;19.13;14.82;;;12.20;72.70;;;;;;5078372;28;20031;-66
2022/03/04 11:31:09;;;;;;;18.30;12.13;;;12.40;77.80;;;;;;5095049;28;20104;-66
2022/03/04 11:33:47;;;;;;;17.65;13.18;;;12.50;73.80;;;;;;5095330;28;20042;-65
2022/03/04 11:36:25;;;;;;;20.08;14.75;;;12.50;71.30;;;;;;5095195;28;20496;-65
2022/03/04 11:38:53;;;;;;;16.20;13.75;;;12.40;69.50;;;;;;5095122;28;20500;-65
2022/03/04 11:41:34;;;;;;;16.10;11.02;;;12.50;70.90;;;;;;5094926;28;20050;-64
2022/03/04 11:44:19;;;;;;;18.05;12.77;;;12.50;65.80;;;;;;5094970;28;20039;-66
2022/03/04 11:46:50;;;;;;;19.27;13.90;;;12.40;67.50;;;;;;5078239;28;20043;-65
2022/03/04 11:49:44;;;;;;;18.75;14.80;;;12.30;68.10;;;;;;5095055;28;20044;-65
2022/03/04 11:52:15;;;;;;;18.42;13.77;;;11.90;65.70;;;;;;5094810;28;20104;-65
2022/03/04 11:54:53;;;;;;;19.75;14.00;;;11.80;69.00;;;;;;5077306;28;20039;-65
2022/03/04 11:57:44;;;;;;;16.77;12.95;;;11.90;68.70;;;;;;5095131;28;20051;-65
2022/03/04 12:00:10;;;;;;;19.88;14.70;;;12.10;66.50;;;;;;5095025;28;20047;-65
2022/03/04 12:02:42;;;;;;;20.23;15.43;;;12.30;69.50;;;;;;5094672;28;20043;-65
2022/03/04 12:05:21;;;;;;;17.98;13.82;;;12.50;71.40;;;;;;5094737;28;20031;-65
2022/03/04 12:08:07;;;;;;;17.85;14.07;;;12.70;71.90;;;;;;5095031;28;20357;-65
2022/03/04 12:10:36;;;;;;;15.50;12.15;;;13.00;70.80;;;;;;5080313;28;20046;-65
2022/03/04 12:13:11;;;;;;;16.13;12.07;;;13.40;70.30;;;;;;5098706;28;20075;-66
2022/03/04 12:16:01;;;;;;;15.75;12.40;;;13.40;68.80;;;;;;5098661;28;20043;-65
2022/03/04 12:18:31;;;;;;;17.05;12.65;;;13.30;65.10;;;;;;5098497;28;20472;-66
2022/03/04 12:21:02;;;;;;;16.70;13.57;;;13.50;66.50;;;;;;5098630;28;20484;-65
2022/03/04 12:23:30;;;;;;;16.42;12.52;;;13.50;67.30;;;;;;5098474;28;20480;-66
2022/03/04 12:25:59;;;;;;;15.60;12.15;;;13.10;67.60;;;;;;5079471;28;20096;-66
2022/03/04 12:28:36;;;;;;;17.60;13.60;;;12.50;68.20;;;;;;5081487;28;20040;-66
2022/03/04 12:31:01;;;;;;;19.33;12.98;;;12.40;68.70;;;;;;5081425;28;20491;-66
2022/03/04 12:33:32;;;;;;;16.80;11.25;;;12.30;68.60;;;;;;5098355;28;20052;-65
2022/03/04 12:35:59;;;;;;;15.98;11.77;;;12.10;67.50;;;;;;5081434;28;20123;-66
2022/03/04 12:38:30;;;;;;;16.60;12.50;;;12.30;67.30;;;;;;5098305;28;20475;-66